createdAt,value
2022-09-04T00:01:12.170Z,101036.06
2022-09-04T00:03:52.188Z,100728.84
2022-09-04T00:06:27.408Z,101030.75
2022-09-04T00:09:52.723Z,101041.56
2022-09-04T00:12:36.425Z,100981.25
2022-09-04T00:15:38.113Z,101041.28
2022-09-04T00:18:34.560Z,101040.97
2022-09-04T00:21:22.793Z,101046.47
2022-09-04T00:24:15.142Z,101049.34
2022-09-04T00:27:15.851Z,101070.63
2022-09-04T00:30:05.018Z,101052.44
2022-09-04T00:32:45.247Z,100906.25
2022-09-04T00:35:18.640Z,101054.78
2022-09-04T00:38:17.302Z,101051.59
2022-09-04T00:41:13.822Z,101048.84
2022-09-04T00:47:14.024Z,101051.91
2022-09-04T00:50:13.529Z,101068.09
2022-09-04T00:52:50.216Z,101061.84
2022-09-04T00:55:56.542Z,101061.97
2022-09-04T00:58:51.177Z,101064.84
2022-09-04T01:01:36.777Z,101009.09
2022-09-04T01:04:27.209Z,101068.75
2022-09-04T01:07:25.203Z,101072.31
2022-09-04T01:10:31.038Z,100876.66
2022-09-04T01:13:17.343Z,101068.94
2022-09-04T01:16:31.778Z,100788.50
2022-09-04T01:19:39.201Z,101072.31
2022-09-04T01:22:52.391Z,100898.59
2022-09-04T01:25:56.203Z,101077.84
2022-09-04T01:29:07.886Z,101072.88
2022-09-04T01:31:54.623Z,101078.25
2022-09-04T01:34:55.239Z,101083.72
2022-09-04T01:38:20.791Z,101079.38
2022-09-04T01:40:57.050Z,100955.66
2022-09-04T01:43:38.344Z,101050.84
2022-09-04T01:46:27.406Z,101079.69
2022-09-04T01:49:22.866Z,101080.56
2022-09-04T01:52:07.252Z,101078.94
2022-09-04T01:54:43.842Z,101086.13
2022-09-04T01:57:22.078Z,101091.56
2022-09-04T02:00:11.309Z,101085.59
2022-09-04T02:02:47.653Z,101095.53
2022-09-04T02:05:30.935Z,101095.84
2022-09-04T02:08:36.259Z,101043.59
2022-09-04T02:11:28.236Z,101096.44
2022-09-04T02:14:41.523Z,101094.88
2022-09-04T02:17:48.100Z,101097.59
2022-09-04T02:20:29.480Z,101030.72
2022-09-04T02:23:38.270Z,101098.66
2022-09-04T02:26:30.544Z,101089.25
2022-09-04T02:29:16.127Z,100777.69
2022-09-04T02:32:16.748Z,101098.84
2022-09-04T02:35:00.079Z,100761.78
2022-09-04T02:37:53.528Z,101099.06
2022-09-04T02:40:55.557Z,101101.38
2022-09-04T02:43:50.650Z,101095.59
2022-09-04T02:46:44.257Z,101093.28
2022-09-04T02:49:29.654Z,101101.50
2022-09-04T02:52:33.886Z,101098.31
2022-09-04T02:55:37.821Z,101101.25
2022-09-04T02:58:40.129Z,101098.03
2022-09-04T03:01:25.089Z,101102.56
2022-09-04T03:04:16.654Z,101102.78
2022-09-04T03:07:36.092Z,101103.94
2022-09-04T03:10:34.342Z,101095.44
2022-09-04T03:13:09.446Z,101064.88
2022-09-04T03:15:44.220Z,101052.06
2022-09-04T03:18:23.202Z,101038.88
2022-09-04T03:21:04.779Z,101100.06
2022-09-04T03:23:52.342Z,101100.06
2022-09-04T03:26:29.422Z,101103.56
2022-09-04T03:29:05.542Z,101107.03
2022-09-04T03:32:00.788Z,101102.69
2022-09-04T03:35:20.610Z,101107.13
2022-09-04T03:38:04.547Z,101111.50
2022-09-04T03:40:37.512Z,101058.94
2022-09-04T03:43:44.430Z,101108.09
2022-09-04T03:46:39.608Z,101109.78
2022-09-04T03:49:35.987Z,101110.75
2022-09-04T03:52:17.727Z,101112.72
2022-09-04T03:54:55.231Z,101108.28
2022-09-04T03:57:38.279Z,101110.53
2022-09-04T04:00:21.876Z,100947.06
2022-09-04T04:03:05.898Z,101108.28
2022-09-04T04:05:44.243Z,100943.88
2022-09-04T04:08:42.490Z,101055.81
2022-09-04T04:11:32.754Z,101112.22
2022-09-04T04:14:38.220Z,101120.25
2022-09-04T04:17:37.015Z,101118.53
2022-09-04T04:20:24.428Z,101074.72
2022-09-04T04:23:29.413Z,101120.41
2022-09-04T04:26:14.998Z,100989.56
2022-09-04T04:29:03.091Z,101116.50
2022-09-04T04:32:10.457Z,101113.94
2022-09-04T04:35:12.696Z,101119.00
2022-09-04T04:37:54.186Z,101041.88
2022-09-04T04:41:00.335Z,101122.41
2022-09-04T04:43:45.161Z,101126.00
2022-09-04T04:46:33.382Z,101127.69
2022-09-04T04:49:38.634Z,101129.41
2022-09-04T04:52:44.396Z,101132.13
2022-09-04T04:55:15.588Z,100988.91
2022-09-04T04:57:54.731Z,101139.22
2022-09-04T05:00:27.974Z,101157.88
2022-09-04T05:03:15.505Z,101150.72
2022-09-04T05:05:59.570Z,101149.69
2022-09-04T05:09:03.726Z,101149.50
2022-09-04T05:11:40.008Z,101103.81
2022-09-04T05:14:28.070Z,101132.22
2022-09-04T05:17:15.081Z,101165.25
2022-09-04T05:19:50.268Z,101162.22
2022-09-04T05:22:35.178Z,101161.94
2022-09-04T05:25:07.694Z,101169.38
2022-09-04T05:28:21.626Z,101174.66
2022-09-04T05:31:02.517Z,101150.72
2022-09-04T05:33:28.940Z,101170.88
2022-09-04T05:36:08.772Z,101185.09
2022-09-04T05:38:44.152Z,101189.81
2022-09-04T05:41:34.125Z,101187.34
2022-09-04T05:44:08.382Z,101083.31
2022-09-04T05:46:42.920Z,101192.09
2022-09-04T05:49:32.913Z,101035.63
2022-09-04T05:52:21.226Z,101203.75
2022-09-04T05:55:11.113Z,101203.38
2022-09-04T05:58:23.733Z,101203.41
2022-09-04T06:00:56.398Z,101160.94
2022-09-04T06:03:41.149Z,101236.25
2022-09-04T06:06:26.693Z,101157.91
2022-09-04T06:09:28.363Z,101123.56
2022-09-04T06:12:28.869Z,101207.69
2022-09-04T06:14:58.762Z,101169.47
2022-09-04T06:17:51.146Z,101209.72
2022-09-04T06:20:29.670Z,101212.38
2022-09-04T06:23:09.431Z,101142.16
2022-09-04T06:26:13.861Z,101210.03
2022-09-04T06:29:05.960Z,101243.16
2022-09-04T06:31:43.453Z,101092.97
2022-09-04T06:34:43.164Z,101179.41
2022-09-04T06:37:33.209Z,101225.22
2022-09-04T06:40:10.525Z,101223.91
2022-09-04T06:43:00.069Z,101229.72
2022-09-04T06:45:55.866Z,101084.19
2022-09-04T06:48:37.197Z,101233.47
2022-09-04T06:51:18.511Z,101140.97
2022-09-04T06:54:49.781Z,101205.28
2022-09-04T06:57:30.645Z,101179.22
2022-09-04T07:00:08.467Z,101243.69
2022-09-04T07:02:44.614Z,101248.47
2022-09-04T07:05:31.358Z,101245.41
2022-09-04T07:08:13.094Z,101170.19
2022-09-04T07:10:45.682Z,101248.59
2022-09-04T07:13:54.281Z,101200.47
2022-09-04T07:17:05.592Z,101256.88
2022-09-04T07:19:38.229Z,101254.66
2022-09-04T07:22:05.102Z,101251.66
2022-09-04T07:24:57.069Z,101238.94
2022-09-04T07:27:40.631Z,101228.53
2022-09-04T07:30:09.279Z,101226.97
2022-09-04T07:32:59.619Z,101249.25
2022-09-04T07:35:57.029Z,101264.44
2022-09-04T07:38:26.315Z,101266.28
2022-09-04T07:41:02.115Z,101207.78
2022-09-04T07:43:42.452Z,101275.47
2022-09-04T07:46:25.185Z,101267.94
2022-09-04T07:49:09.979Z,101222.41
2022-09-04T07:51:47.488Z,101225.84
2022-09-04T07:54:29.501Z,101269.94
2022-09-04T07:57:28.794Z,101272.25
2022-09-04T08:00:05.055Z,101283.44
2022-09-04T08:03:11.957Z,101268.84
2022-09-04T08:05:49.357Z,101278.31
2022-09-04T08:08:31.475Z,101253.88
2022-09-04T08:11:30.700Z,101270.81
2022-09-04T08:14:23.395Z,101276.59
2022-09-04T08:17:00.602Z,101186.53
2022-09-04T08:19:54.700Z,101209.13
2022-09-04T08:22:37.637Z,101141.59
2022-09-04T08:25:29.929Z,101180.16
2022-09-04T08:28:46.476Z,101280.28
2022-09-04T08:31:24.225Z,101287.19
2022-09-04T08:34:00.077Z,101279.16
2022-09-04T08:36:39.496Z,101198.97
2022-09-04T08:39:28.920Z,101281.84
2022-09-04T08:42:05.774Z,101278.53
2022-09-04T08:44:35.073Z,101285.78
2022-09-04T08:47:28.394Z,101286.06
2022-09-04T08:50:23.862Z,101288.31
2022-09-04T08:53:08.993Z,101290.09
2022-09-04T08:56:06.351Z,101289.00
2022-09-04T08:58:54.200Z,101290.91
2022-09-04T09:01:37.382Z,101286.44
2022-09-04T09:04:47.738Z,101303.63
2022-09-04T09:08:04.926Z,101261.78
2022-09-04T09:11:10.506Z,101152.78
2022-09-04T09:14:02.123Z,101298.06
2022-09-04T09:16:43.124Z,101242.06
2022-09-04T09:19:47.406Z,101193.41
2022-09-04T09:22:49.498Z,101286.09
2022-09-04T09:25:23.976Z,101286.06
2022-09-04T09:28:23.375Z,101286.47
2022-09-04T09:31:12.340Z,101278.47
2022-09-04T09:34:00.648Z,101279.94
2022-09-04T09:37:04.749Z,101282.63
2022-09-04T09:40:01.479Z,101277.28
2022-09-04T09:42:48.314Z,101276.25
2022-09-04T09:45:37.801Z,101275.63
2022-09-04T09:48:37.997Z,101249.72
2022-09-04T09:51:34.873Z,101133.69
2022-09-04T09:54:42.114Z,101279.16
2022-09-04T09:57:29.699Z,101271.81
2022-09-04T10:00:21.217Z,101270.56
2022-09-04T10:03:24.661Z,101197.25
2022-09-04T10:06:27.242Z,101252.97
2022-09-04T10:09:39.049Z,101267.09
2022-09-04T10:12:43.897Z,101260.03
2022-09-04T10:15:10.382Z,101264.06
2022-09-04T10:18:07.229Z,101251.47
2022-09-04T10:20:53.952Z,101267.44
2022-09-04T10:23:31.191Z,101152.09
2022-09-04T10:26:16.052Z,101271.56
2022-09-04T10:28:57.087Z,101265.38
2022-09-04T10:31:47.364Z,101272.59
2022-09-04T10:34:38.819Z,101272.13
2022-09-04T10:37:30.045Z,101287.59
2022-09-04T10:40:33.690Z,101280.03
2022-09-04T10:43:32.140Z,101262.78
2022-09-04T10:46:22.678Z,101234.13
2022-09-04T10:49:12.092Z,101274.13
2022-09-04T10:52:04.941Z,101275.53
2022-09-04T10:55:14.800Z,101279.00
2022-09-04T10:57:59.777Z,101228.59
2022-09-04T11:00:53.393Z,101277.81
2022-09-04T11:03:46.955Z,101251.16
2022-09-04T11:06:26.297Z,101284.25
2022-09-04T11:09:00.479Z,101279.94
2022-09-04T11:11:45.165Z,101275.06
2022-09-04T11:14:35.693Z,101224.75
2022-09-04T11:17:14.241Z,101268.84
2022-09-04T11:20:17.594Z,101259.03
2022-09-04T11:23:22.684Z,101250.81
2022-09-04T11:26:37.959Z,101259.50
2022-09-04T11:29:22.402Z,101272.91
2022-09-04T11:32:12.070Z,101198.84
2022-09-04T11:35:00.540Z,101269.19
2022-09-04T11:37:38.674Z,101262.56
2022-09-04T11:40:39.124Z,101253.13
2022-09-04T11:43:29.777Z,101253.03
2022-09-04T11:46:27.259Z,101182.22
2022-09-04T11:49:13.281Z,101103.06
2022-09-04T11:52:18.096Z,101264.44
2022-09-04T11:55:26.194Z,101261.44
2022-09-04T11:58:08.366Z,101185.53
2022-09-04T12:01:09.273Z,101273.66
2022-09-04T12:04:01.881Z,101269.81
2022-09-04T12:07:02.314Z,101294.06
2022-09-04T12:09:28.972Z,101286.13
2022-09-04T12:12:14.459Z,101293.59
2022-09-04T12:15:08.553Z,101291.91
2022-09-04T12:17:57.180Z,101180.06
2022-09-04T12:20:31.039Z,101296.94
2022-09-04T12:23:03.760Z,101306.91
2022-09-04T12:25:39.353Z,101307.38
2022-09-04T12:28:25.052Z,101249.44
2022-09-04T12:31:10.272Z,101322.78
2022-09-04T12:33:49.160Z,101312.00
2022-09-04T12:36:26.419Z,101318.28
2022-09-04T12:39:03.505Z,101318.09
2022-09-04T12:41:56.454Z,101318.63
2022-09-04T12:44:42.454Z,101321.38
2022-09-04T12:47:33.151Z,101284.66
2022-09-04T12:50:17.848Z,101205.25
2022-09-04T12:53:25.796Z,101318.16
2022-09-04T12:56:03.815Z,101177.47
2022-09-04T12:58:36.300Z,101333.44
2022-09-04T13:01:19.281Z,101328.88
2022-09-04T13:04:22.085Z,101322.00
2022-09-04T13:07:07.087Z,101310.81
2022-09-04T13:10:07.409Z,101245.16
2022-09-04T13:12:46.253Z,101325.91
2022-09-04T13:15:51.065Z,101306.38
2022-09-04T13:18:44.640Z,101322.03
2022-09-04T13:21:51.593Z,101315.72
2022-09-04T13:24:26.576Z,101334.22
2022-09-04T13:27:07.600Z,101327.81
2022-09-04T13:29:50.532Z,101331.06
2022-09-04T13:32:41.906Z,101309.94
2022-09-04T13:35:50.344Z,101326.91
2022-09-04T13:38:58.230Z,101346.84
2022-09-04T13:41:50.758Z,101337.38
2022-09-04T13:44:54.374Z,101319.03
2022-09-04T13:47:31.936Z,101239.75
2022-09-04T13:50:17.286Z,101226.44
2022-09-04T13:52:59.726Z,101183.78
2022-09-04T13:55:34.713Z,101361.34
2022-09-04T13:58:13.987Z,101305.63
2022-09-04T14:00:49.377Z,101374.91
2022-09-04T14:03:38.369Z,101365.16
2022-09-04T14:06:08.718Z,101293.59
2022-09-04T14:08:37.661Z,101117.28
2022-09-04T14:11:19.252Z,101379.41
2022-09-04T14:13:50.961Z,101381.03
2022-09-04T14:16:18.876Z,101306.63
2022-09-04T14:18:59.176Z,101337.19
2022-09-04T14:21:44.297Z,101233.09
2022-09-04T14:24:38.663Z,101317.81
2022-09-04T14:27:28.750Z,101373.94
2022-09-04T14:30:17.082Z,101370.84
2022-09-04T14:32:56.886Z,100949.22
2022-09-04T14:35:36.448Z,101306.63
2022-09-04T14:38:25.032Z,101380.44
2022-09-04T14:41:18.818Z,101238.44
2022-09-04T14:43:59.385Z,101383.94
2022-09-04T14:46:38.438Z,101261.50
2022-09-04T14:49:08.689Z,101373.50
2022-09-04T14:51:46.454Z,101340.25
2022-09-04T14:54:23.012Z,101375.72
2022-09-04T14:56:56.683Z,101230.00
2022-09-04T14:59:37.245Z,101311.50
2022-09-04T15:02:10.261Z,101385.88
2022-09-04T15:05:14.606Z,101373.56
2022-09-04T15:07:43.808Z,101374.78
2022-09-04T15:10:31.565Z,101161.50
2022-09-04T15:13:14.718Z,101381.50
2022-09-04T15:15:49.619Z,101228.19
2022-09-04T15:18:58.993Z,101378.97
2022-09-04T15:21:37.466Z,101383.00
2022-09-04T15:24:15.487Z,101257.72
2022-09-04T15:26:55.611Z,101380.75
2022-09-04T15:29:57.398Z,101303.91
2022-09-04T15:32:26.645Z,101382.53
2022-09-04T15:35:21.115Z,101379.00
2022-09-04T15:37:51.585Z,101392.72
2022-09-04T15:40:28.445Z,101340.56
2022-09-04T15:43:10.117Z,101379.91
2022-09-04T15:45:57.928Z,101392.19
2022-09-04T15:48:40.433Z,101213.69
2022-09-04T15:51:15.995Z,101404.16
2022-09-04T15:54:00.637Z,101401.38
2022-09-04T15:56:49.522Z,101069.84
2022-09-04T15:59:20.356Z,101358.09
2022-09-04T16:01:55.821Z,101312.00
2022-09-04T16:04:34.866Z,101284.38
2022-09-04T16:07:20.247Z,101392.34
2022-09-04T16:09:53.534Z,101377.22
2022-09-04T16:12:32.030Z,101400.53
2022-09-04T16:15:05.608Z,101316.88
2022-09-04T16:17:42.351Z,101406.63
2022-09-04T16:20:20.658Z,101368.16
2022-09-04T16:22:58.483Z,101409.81
2022-09-04T16:25:40.521Z,101406.28
2022-09-04T16:28:40.885Z,101324.53
2022-09-04T16:31:12.920Z,101408.16
2022-09-04T16:33:53.324Z,101301.16
2022-09-04T16:36:36.089Z,101402.38
2022-09-04T16:39:25.340Z,101414.94
2022-09-04T16:42:10.424Z,101418.41
2022-09-04T16:44:45.388Z,101414.56
2022-09-04T16:47:40.843Z,101301.81
2022-09-04T16:50:35.526Z,101426.09
2022-09-04T16:53:29.177Z,101417.34
2022-09-04T16:56:09.311Z,101251.59
2022-09-04T16:59:00.287Z,101343.25
2022-09-04T17:01:32.225Z,101368.97
2022-09-04T17:04:13.645Z,101409.16
2022-09-04T17:07:12.143Z,101418.16
2022-09-04T17:10:01.615Z,101349.16
2022-09-04T17:12:34.178Z,101422.84
2022-09-04T17:15:53.686Z,101420.19
2022-09-04T17:18:26.401Z,101343.94
2022-09-04T17:22:44.920Z,101417.50
2022-09-04T17:29:08.639Z,101103.34
2022-09-04T17:29:17.724Z,101416.13
2022-09-04T17:30:31.609Z,101370.78
2022-09-04T17:36:23.581Z,101315.22
2022-09-04T17:40:43.796Z,101418.56
2022-09-04T17:40:55.712Z,101409.44
2022-09-04T17:42:16.798Z,101415.13
2022-09-04T17:45:10.086Z,101354.38
2022-09-04T17:47:45.339Z,101337.34
2022-09-04T17:50:16.463Z,101365.19
2022-09-04T17:53:02.125Z,101422.69
2022-09-04T17:55:39.039Z,101429.69
2022-09-04T17:58:26.425Z,101381.91
2022-09-04T18:01:15.538Z,101426.38
2022-09-04T18:04:08.118Z,101432.50
2022-09-04T18:06:44.410Z,101434.63
2022-09-04T18:09:26.852Z,101438.41
2022-09-04T18:12:04.501Z,101445.84
2022-09-04T18:14:37.503Z,101444.25
2022-09-04T18:17:29.090Z,101457.00
2022-09-04T18:20:10.578Z,101443.31
2022-09-04T18:23:14.451Z,101463.16
2022-09-04T18:25:59.550Z,101420.56
2022-09-04T18:28:56.885Z,101477.56
2022-09-04T18:37:09.174Z,101308.56
2022-09-04T18:37:23.209Z,101363.06
2022-09-04T18:37:47.357Z,101503.13
2022-09-04T18:41:22.186Z,101497.53
2022-09-04T18:50:20.804Z,101505.59
2022-09-04T18:50:32.099Z,101509.00
2022-09-04T18:50:50.997Z,101519.84
2022-09-04T18:52:04.583Z,101385.28
2022-09-04T18:54:42.486Z,101283.97
2022-09-04T18:57:33.727Z,101354.88
2022-09-04T19:00:10.477Z,100849.50
2022-09-04T19:02:53.456Z,101126.56
2022-09-04T19:05:22.070Z,101533.34
2022-09-04T19:08:02.735Z,101549.28
2022-09-04T19:10:50.624Z,101465.72
2022-09-04T19:13:30.461Z,101532.09
2022-09-04T19:16:08.797Z,101537.59
2022-09-04T19:18:45.362Z,101525.84
2022-09-04T19:21:17.484Z,101537.66
2022-09-04T19:23:58.891Z,101534.44
2022-09-04T19:26:46.593Z,101520.28
2022-09-04T19:29:38.559Z,101498.50
2022-09-04T19:32:12.132Z,101545.97
2022-09-04T19:35:15.603Z,101444.09
2022-09-04T19:39:32.854Z,101545.06
2022-09-04T19:46:03.652Z,101536.72
2022-09-04T19:46:13.432Z,101536.81
2022-09-04T19:47:09.546Z,101537.00
2022-09-04T19:52:50.038Z,101431.72
2022-09-04T19:53:35.806Z,101544.53
2022-09-04T19:55:48.698Z,101537.75
2022-09-04T19:58:25.132Z,101527.63
2022-09-04T20:00:58.119Z,101467.44
2022-09-04T20:03:33.440Z,101516.66
2022-09-04T20:06:20.741Z,101535.22
2022-09-04T20:08:59.189Z,101393.34
2022-09-04T20:11:35.619Z,101509.41
2022-09-04T20:14:14.187Z,101490.75
2022-09-04T20:17:05.889Z,101553.94
2022-09-04T20:19:47.256Z,101439.72
2022-09-04T20:22:28.703Z,101068.53
2022-09-04T20:25:28.506Z,101455.31
2022-09-04T20:28:15.767Z,100879.25
2022-09-04T20:30:47.818Z,101557.81
2022-09-04T20:33:24.610Z,101471.50
2022-09-04T20:36:22.835Z,101353.47
2022-09-04T20:39:19.709Z,101496.81
2022-09-04T20:41:56.657Z,101461.94
2022-09-04T20:47:26.157Z,101555.41
2022-09-04T20:52:42.204Z,101294.31
2022-09-04T20:53:05.756Z,101374.19
2022-09-04T20:54:06.305Z,101436.75
2022-09-04T20:58:04.120Z,101561.00
2022-09-04T21:03:15.015Z,101562.34
2022-09-04T21:06:28.550Z,101562.25
2022-09-04T21:09:16.362Z,101558.38
2022-09-04T21:11:50.108Z,101564.06
2022-09-04T21:14:26.918Z,101474.50
2022-09-04T21:17:29.881Z,101564.53
2022-09-04T21:20:26.520Z,101566.72
2022-09-04T21:23:57.880Z,101564.16
2022-09-04T21:26:44.257Z,101464.44
2022-09-04T21:29:32.010Z,101570.22
2022-09-04T21:32:08.566Z,101523.66
2022-09-04T21:34:53.880Z,101559.78
2022-09-04T21:37:29.839Z,101558.22
2022-09-04T21:40:51.924Z,101508.63
2022-09-04T21:43:40.518Z,101559.59
2022-09-04T21:46:46.079Z,101382.81
2022-09-04T21:49:26.770Z,101570.00
2022-09-04T21:51:56.348Z,101570.47
2022-09-04T21:59:04.677Z,101576.50
2022-09-04T22:02:36.259Z,101529.78
2022-09-04T22:02:45.890Z,101568.94
2022-09-04T22:04:25.457Z,101571.72
2022-09-04T22:10:38.513Z,101572.81
2022-09-04T22:13:39.584Z,101525.13
2022-09-04T22:13:43.727Z,101563.34
2022-09-04T22:16:34.916Z,101528.78
2022-09-04T22:19:16.092Z,101531.75
2022-09-04T22:21:52.281Z,101557.88
2022-09-04T22:24:30.898Z,101567.66
2022-09-04T22:27:07.891Z,101564.28
2022-09-04T22:30:11.214Z,101564.50
2022-09-04T22:32:46.721Z,101562.19
2022-09-04T22:35:35.677Z,101431.78
2022-09-04T22:38:11.473Z,101568.44
2022-09-04T22:40:57.197Z,101566.03
2022-09-04T22:43:26.031Z,101492.25
2022-09-04T22:46:33.399Z,101566.59
2022-09-04T22:49:20.853Z,101577.69
2022-09-04T22:52:10.069Z,101571.69
2022-09-04T22:55:17.613Z,101532.63
2022-09-04T22:58:18.107Z,101568.66
2022-09-04T23:01:06.633Z,101564.06
2022-09-04T23:03:49.019Z,101573.09
2022-09-04T23:06:54.399Z,101577.81
2022-09-04T23:13:56.778Z,101572.50
2022-09-04T23:13:57.111Z,101568.56
2022-09-04T23:16:18.091Z,101568.25
2022-09-04T23:23:18.704Z,101572.84
2022-09-04T23:26:37.263Z,101567.72
2022-09-04T23:26:43.221Z,101544.28
2022-09-04T23:28:41.157Z,101388.69
2022-09-04T23:31:37.303Z,101549.28
2022-09-04T23:34:37.971Z,101567.44
2022-09-04T23:37:27.836Z,101569.09
2022-09-04T23:40:43.590Z,101571.44
2022-09-04T23:44:07.206Z,101555.81
2022-09-04T23:46:45.775Z,101562.72
2022-09-04T23:49:34.826Z,101562.09
2022-09-04T23:52:08.037Z,101562.94
2022-09-04T23:55:03.270Z,101570.09
2022-09-04T23:57:44.829Z,101444.06
